Terminal Aerodrome Forecast
Issued by NWS

Home | Current Version | Previous Version | Text Only | Print | Product List | Glossary On
Versions: 1 2 3 4 5 6 7 8 9 10 11 12 13 14 15 16
000
FTUS45 KREV 010500
TAFMMH
TAF
KMMH 010520Z 0106/0206 VRB03KT P6SM SKC
     FM012100 30007KT P6SM SCT250
     FM020400 VRB03KT P6SM FEW250
      AMD NOT SKED TIL 011400=

USA.gov is the U.S. government's official web portal to all federal, state and local government web resources and services.